createdAt,value
2022-08-22T00:00:33.942Z,101824.53
2022-08-22T00:02:52.898Z,101811.78
2022-08-22T00:02:56.068Z,101845.91
2022-08-22T00:03:01.689Z,101793.09
2022-08-22T00:03:09.413Z,101843.16
2022-08-22T00:03:12.645Z,101845.38
2022-08-22T00:05:54.917Z,101821.19
2022-08-22T00:08:58.786Z,101814.88
2022-08-22T00:11:49.719Z,101818.53
2022-08-22T00:14:32.929Z,101824.53
2022-08-22T00:17:03.008Z,101821.84
2022-08-22T00:19:49.920Z,101826.34
2022-08-22T00:22:25.963Z,101824.38
2022-08-22T00:25:01.690Z,101823.69
2022-08-22T00:27:36.698Z,101822.69
2022-08-22T00:30:16.135Z,101820.19
2022-08-22T00:32:49.153Z,101824.00
2022-08-22T00:35:23.809Z,101820.78
2022-08-22T00:38:10.686Z,101825.69
2022-08-22T00:41:14.773Z,101828.66
2022-08-22T00:44:08.019Z,101830.50
2022-08-22T00:46:48.259Z,101828.25
2022-08-22T00:49:23.508Z,101836.53
2022-08-22T00:52:04.822Z,101835.97
2022-08-22T00:54:34.192Z,101834.72
2022-08-22T00:57:10.636Z,101840.34
2022-08-22T00:59:55.175Z,101835.28
2022-08-22T01:02:36.733Z,101834.59
2022-08-22T01:05:17.138Z,101834.03
2022-08-22T01:08:14.072Z,101827.22
2022-08-22T01:11:26.818Z,101825.81
2022-08-22T01:14:34.416Z,101832.13
2022-08-22T01:17:22.743Z,101830.84
2022-08-22T01:20:08.039Z,101829.56
2022-08-22T01:22:47.072Z,101831.53
2022-08-22T01:25:39.296Z,101836.03
2022-08-22T01:28:09.770Z,101838.84
2022-08-22T01:30:55.567Z,101838.00
2022-08-22T01:33:59.404Z,101830.84
2022-08-22T01:36:47.692Z,101840.50
2022-08-22T01:39:19.890Z,101843.59
2022-08-22T01:41:46.183Z,101834.94
2022-08-22T01:44:28.724Z,101838.72
2022-08-22T01:47:06.779Z,101836.34
2022-08-22T01:49:44.107Z,101841.09
2022-08-22T01:52:32.191Z,101841.34
2022-08-22T01:55:22.723Z,101836.59
2022-08-22T01:57:59.444Z,101837.94
2022-08-22T02:00:34.721Z,101840.63
2022-08-22T02:03:33.102Z,101836.69
2022-08-22T02:06:17.050Z,101837.22
2022-08-22T02:08:50.346Z,101836.78
2022-08-22T02:11:33.514Z,101824.47
2022-08-22T02:14:41.939Z,101823.34
2022-08-22T02:17:17.513Z,101832.47
2022-08-22T02:19:56.790Z,101830.06
2022-08-22T02:23:20.362Z,101821.72
2022-08-22T02:26:01.675Z,101821.00
2022-08-22T02:28:57.409Z,101822.72
2022-08-22T02:31:38.619Z,101825.38
2022-08-22T02:34:37.417Z,101825.38
2022-08-22T02:37:07.987Z,101821.72
2022-08-22T02:40:02.356Z,101823.66
2022-08-22T02:42:38.058Z,101811.34
2022-08-22T02:45:15.297Z,101808.00
2022-08-22T02:48:04.979Z,101811.81
2022-08-22T02:50:47.371Z,101813.47
2022-08-22T02:53:23.258Z,101822.28
2022-08-22T02:56:08.675Z,101818.66
2022-08-22T02:58:59.893Z,101816.56
2022-08-22T03:01:29.767Z,101812.91
2022-08-22T03:04:21.515Z,101816.41
2022-08-22T03:07:03.425Z,101813.91
2022-08-22T03:09:35.405Z,101802.44
2022-08-22T03:12:21.740Z,101813.59
2022-08-22T03:15:09.874Z,101809.00
2022-08-22T03:17:49.596Z,101811.34
2022-08-22T03:20:40.446Z,101808.69
2022-08-22T03:23:20.206Z,101804.34
2022-08-22T03:25:59.617Z,101808.53
2022-08-22T03:28:38.119Z,101797.78
2022-08-22T03:31:13.483Z,101800.44
2022-08-22T03:33:40.111Z,101802.25
2022-08-22T03:36:28.668Z,101797.06
2022-08-22T03:39:17.309Z,101790.06
2022-08-22T03:42:23.328Z,101786.72
2022-08-22T03:45:00.177Z,101784.34
2022-08-22T03:48:11.523Z,101786.16
2022-08-22T03:50:38.309Z,101792.31
2022-08-22T03:53:37.269Z,101780.56
2022-08-22T03:56:09.666Z,101785.06
2022-08-22T03:59:02.870Z,101794.03
2022-08-22T04:01:51.613Z,101788.69
2022-08-22T04:04:43.141Z,101794.53
2022-08-22T04:07:28.005Z,101790.06
2022-08-22T04:10:29.054Z,101793.44
2022-08-22T04:13:24.802Z,101793.44
2022-08-22T04:16:29.396Z,101793.44
2022-08-22T04:19:30.418Z,101793.44
2022-08-22T04:22:21.539Z,101793.72
2022-08-22T04:24:57.821Z,101790.06
2022-08-22T04:27:47.883Z,101799.72
2022-08-22T04:30:23.312Z,101790.91
2022-08-22T04:33:20.955Z,101801.69
2022-08-22T04:35:59.207Z,101799.34
2022-08-22T04:38:48.234Z,101804.66
2022-08-22T04:41:50.300Z,101808.00
2022-08-22T04:44:31.172Z,101804.34
2022-08-22T04:46:59.995Z,101802.38
2022-08-22T04:49:38.509Z,101802.09
2022-08-22T04:52:13.981Z,101804.59
2022-08-22T04:54:58.974Z,101805.44
2022-08-22T04:57:32.320Z,101812.44
2022-08-22T05:00:02.311Z,101808.78
2022-08-22T05:02:28.876Z,101820.16
2022-08-22T05:05:04.030Z,101810.19
2022-08-22T05:07:37.331Z,101815.50
2022-08-22T05:10:16.270Z,101817.19
2022-08-22T05:12:49.455Z,101820.56
2022-08-22T05:15:23.212Z,101809.91
2022-08-22T05:17:53.256Z,101820.28
2022-08-22T05:20:25.151Z,101816.63
2022-08-22T05:23:02.625Z,101813.25
2022-08-22T05:25:36.396Z,101807.66
2022-08-22T05:28:28.674Z,101822.50
2022-08-22T05:30:56.090Z,101819.38
2022-08-22T05:33:31.762Z,101831.44
2022-08-22T05:36:04.361Z,101832.25
2022-08-22T05:38:36.356Z,101828.59
2022-08-22T05:41:10.026Z,101837.44
2022-08-22T05:43:40.652Z,101847.66
2022-08-22T05:46:26.862Z,101848.22
2022-08-22T05:49:00.230Z,101849.56
2022-08-22T05:51:39.435Z,101849.81
2022-08-22T05:54:22.318Z,101844.88
2022-08-22T05:57:11.888Z,101846.13
2022-08-22T05:59:41.827Z,101840.50
2022-08-22T06:02:22.527Z,101840.59
2022-08-22T06:04:54.668Z,101847.44
2022-08-22T06:07:33.783Z,101840.69
2022-08-22T06:10:13.547Z,101846.53
2022-08-22T06:12:50.820Z,101847.59
2022-08-22T06:15:52.704Z,101851.50
2022-08-22T06:18:24.850Z,101853.09
2022-08-22T06:20:57.686Z,101851.06
2022-08-22T06:23:29.882Z,101856.78
2022-08-22T06:26:00.274Z,101854.03
2022-08-22T06:28:34.033Z,101858.94
2022-08-22T06:31:03.398Z,101862.16
2022-08-22T06:33:34.742Z,101861.94
2022-08-22T06:36:24.987Z,101868.53
2022-08-22T06:39:09.845Z,101859.25
2022-08-22T06:41:42.774Z,101867.44
2022-08-22T06:44:13.353Z,101865.81
2022-08-22T06:46:41.278Z,101869.06
2022-08-22T06:49:09.274Z,101862.44
2022-08-22T06:51:38.775Z,101861.69
2022-08-22T06:54:11.443Z,101865.47
2022-08-22T06:56:44.110Z,101864.00
2022-08-22T06:59:17.122Z,101874.34
2022-08-22T07:02:13.379Z,101874.44
2022-08-22T07:04:43.797Z,101869.81
2022-08-22T07:07:10.163Z,101870.84
2022-08-22T07:09:40.515Z,101873.88
2022-08-22T07:12:19.926Z,101872.88
2022-08-22T07:14:52.910Z,101874.22
2022-08-22T07:17:23.418Z,101871.88
2022-08-22T07:20:18.618Z,101868.97
2022-08-22T07:22:57.579Z,101871.81
2022-08-22T07:25:25.247Z,101861.78
2022-08-22T07:28:36.733Z,101862.28
2022-08-22T07:31:31.762Z,101857.16
2022-08-22T07:34:18.218Z,101856.84
2022-08-22T07:37:00.919Z,101860.19
2022-08-22T07:39:37.459Z,101854.16
2022-08-22T07:42:29.779Z,101852.88
2022-08-22T07:45:14.025Z,101855.31
2022-08-22T07:48:08.982Z,101846.88
2022-08-22T07:50:42.720Z,101844.13
2022-08-22T07:53:34.028Z,101843.06
2022-08-22T07:56:03.208Z,101837.03
2022-08-22T07:58:33.835Z,101836.06
2022-08-22T08:01:00.698Z,101827.38
2022-08-22T08:03:30.297Z,101824.44
2022-08-22T08:05:57.294Z,101824.25
2022-08-22T08:08:31.005Z,101810.63
2022-08-22T08:11:00.453Z,101821.69
2022-08-22T08:13:33.999Z,101819.03
2022-08-22T08:16:02.341Z,101810.47
2022-08-22T08:18:31.995Z,101804.59
2022-08-22T08:21:02.393Z,101795.38
2022-08-22T08:23:33.552Z,101803.38
2022-08-22T08:26:13.218Z,101805.78
2022-08-22T08:28:45.671Z,101806.03
2022-08-22T08:31:20.432Z,101803.91
2022-08-22T08:33:50.263Z,101797.19
2022-08-22T08:36:31.089Z,101798.63
2022-08-22T08:39:12.383Z,101802.63
2022-08-22T08:42:09.144Z,101795.13
2022-08-22T08:44:38.439Z,101805.97
2022-08-22T08:47:32.880Z,101800.00
2022-08-22T08:50:16.856Z,101800.22
2022-08-22T08:52:59.166Z,101794.94
2022-08-22T08:55:44.575Z,101796.09
2022-08-22T08:58:19.903Z,101791.13
2022-08-22T09:00:49.284Z,101795.41
2022-08-22T09:03:45.823Z,101800.41
2022-08-22T09:06:30.955Z,101802.31
2022-08-22T09:09:03.929Z,101806.66
2022-08-22T09:11:58.267Z,101800.81
2022-08-22T09:14:48.457Z,101794.00
2022-08-22T09:17:51.575Z,101785.28
2022-08-22T09:20:49.098Z,101787.31
2022-08-22T09:23:44.111Z,101785.91
2022-08-22T09:26:18.986Z,101785.84
2022-08-22T09:29:01.915Z,101784.50
2022-08-22T09:31:48.175Z,101785.72
2022-08-22T09:34:31.791Z,101779.44
2022-08-22T09:37:13.979Z,101774.28
2022-08-22T09:39:53.399Z,101772.38
2022-08-22T09:42:31.296Z,101771.19
2022-08-22T09:45:06.853Z,101775.84
2022-08-22T09:47:43.571Z,101772.13
2022-08-22T09:50:30.806Z,101767.75
2022-08-22T09:53:10.287Z,101766.19
2022-08-22T09:55:47.607Z,101768.91
2022-08-22T09:58:28.346Z,101768.13
2022-08-22T10:00:59.555Z,101771.16
2022-08-22T10:03:45.327Z,101758.19
2022-08-22T10:06:27.551Z,101748.56
2022-08-22T10:09:09.092Z,101752.06
2022-08-22T10:11:57.761Z,101754.88
2022-08-22T10:14:58.008Z,101756.94
2022-08-22T10:17:41.343Z,101753.56
2022-08-22T10:20:24.779Z,101748.19
2022-08-22T10:23:00.343Z,101744.28
2022-08-22T10:25:46.939Z,101734.38
2022-08-22T10:28:28.474Z,101743.75
2022-08-22T10:31:17.963Z,101739.13
2022-08-22T10:34:02.335Z,101731.75
2022-08-22T10:36:55.072Z,101728.03
2022-08-22T10:39:26.632Z,101735.50
2022-08-22T10:42:19.348Z,101734.22
2022-08-22T10:45:04.546Z,101731.31
2022-08-22T10:47:40.802Z,101719.19
2022-08-22T10:50:21.131Z,101712.78
2022-08-22T10:53:28.980Z,101714.38
2022-08-22T10:56:13.806Z,101701.88
2022-08-22T10:59:03.949Z,101712.25
2022-08-22T11:01:42.246Z,101722.78
2022-08-22T11:04:40.687Z,101719.81
2022-08-22T11:07:21.839Z,101721.31
2022-08-22T11:09:58.683Z,101721.00
2022-08-22T11:12:37.340Z,101716.78
2022-08-22T11:15:40.547Z,101719.72
2022-08-22T11:18:34.707Z,101724.59
2022-08-22T11:21:07.395Z,101718.16
2022-08-22T11:24:00.649Z,101716.81
2022-08-22T11:26:47.431Z,101716.72
2022-08-22T11:29:36.289Z,101707.53
2022-08-22T11:32:31.846Z,101709.94
2022-08-22T11:35:21.642Z,101710.94
2022-08-22T11:38:04.948Z,101703.03
2022-08-22T11:40:57.699Z,101703.75
2022-08-22T11:43:49.614Z,101706.19
2022-08-22T11:46:30.716Z,101691.94
2022-08-22T11:49:19.017Z,101691.31
2022-08-22T11:52:21.814Z,101700.97
2022-08-22T11:55:16.611Z,101703.50
2022-08-22T11:57:47.848Z,101700.88
2022-08-22T12:00:29.707Z,101694.69
2022-08-22T12:03:19.082Z,101684.19
2022-08-22T12:06:32.242Z,101681.78
2022-08-22T12:09:39.801Z,101679.63
2022-08-22T12:12:42.393Z,101687.31
2022-08-22T12:15:33.607Z,101688.03
2022-08-22T12:18:29.415Z,101680.38
2022-08-22T12:21:14.847Z,101677.44
2022-08-22T12:23:59.306Z,101671.28
2022-08-22T12:26:57.118Z,101678.97
2022-08-22T12:29:45.536Z,101681.06
2022-08-22T12:32:33.268Z,101674.97
2022-08-22T12:35:29.813Z,101675.03
2022-08-22T12:38:26.661Z,101675.81
2022-08-22T12:41:08.629Z,101663.97
2022-08-22T12:43:57.983Z,101668.00
2022-08-22T12:46:47.179Z,101680.75
2022-08-22T12:49:33.851Z,101673.94
2022-08-22T12:52:24.989Z,101680.34
2022-08-22T12:55:31.488Z,101673.94
2022-08-22T12:58:07.541Z,101669.56
2022-08-22T13:00:45.208Z,101673.19
2022-08-22T13:03:35.243Z,101659.72
2022-08-22T13:06:26.535Z,101664.84
2022-08-22T13:08:54.251Z,101658.03
2022-08-22T13:11:23.242Z,101656.09
2022-08-22T13:14:00.310Z,101653.72
2022-08-22T13:16:37.544Z,101657.38
2022-08-22T13:19:13.446Z,101642.69
2022-08-22T13:21:47.097Z,101641.22
2022-08-22T13:24:38.805Z,101644.72
2022-08-22T13:27:15.156Z,101651.88
2022-08-22T13:29:52.486Z,101642.78
2022-08-22T13:32:37.234Z,101642.69
2022-08-22T13:35:07.912Z,101644.91
2022-08-22T13:37:43.841Z,101644.16
2022-08-22T13:40:15.273Z,101627.34
2022-08-22T13:42:54.154Z,101629.88
2022-08-22T13:45:28.539Z,101630.97
2022-08-22T13:47:59.213Z,101621.59
2022-08-22T13:50:53.594Z,101625.13
2022-08-22T13:54:02.195Z,101627.94
2022-08-22T13:56:39.686Z,101619.78
2022-08-22T13:59:49.689Z,101613.88
2022-08-22T14:02:43.789Z,101617.25
2022-08-22T14:05:20.498Z,101617.09
2022-08-22T14:08:12.864Z,101616.59
2022-08-22T14:10:47.087Z,101614.31
2022-08-22T14:13:30.462Z,101617.50
2022-08-22T14:16:02.508Z,101613.72
2022-08-22T14:18:45.528Z,101618.25
2022-08-22T14:21:24.759Z,101609.00
2022-08-22T14:23:53.389Z,101606.59
2022-08-22T14:26:32.996Z,101606.16
2022-08-22T14:29:08.325Z,101604.97
2022-08-22T14:31:35.630Z,101601.25
2022-08-22T14:34:10.476Z,101607.50
2022-08-22T14:36:55.882Z,101603.13
2022-08-22T14:39:36.596Z,101596.63
2022-08-22T14:42:17.484Z,101596.50
2022-08-22T14:44:57.778Z,101590.84
2022-08-22T14:47:55.434Z,101577.13
2022-08-22T14:50:53.259Z,101579.69
2022-08-22T14:53:22.181Z,101589.16
2022-08-22T14:56:00.565Z,101579.25
2022-08-22T14:58:29.665Z,101584.31
2022-08-22T15:00:57.943Z,101566.94
2022-08-22T15:03:37.389Z,101583.69
2022-08-22T15:06:10.148Z,101574.13
2022-08-22T15:08:49.238Z,101579.91
2022-08-22T15:11:25.639Z,101569.91
2022-08-22T15:14:08.167Z,101575.31
2022-08-22T15:16:55.288Z,101566.09
2022-08-22T15:19:35.216Z,101571.47
2022-08-22T15:22:25.624Z,101569.38
2022-08-22T15:25:04.534Z,101565.22
2022-08-22T15:28:05.298Z,101572.69
2022-08-22T15:30:57.701Z,101567.50
2022-08-22T15:33:27.846Z,101564.97
2022-08-22T15:36:15.735Z,101560.38
2022-08-22T15:38:48.117Z,101563.03
2022-08-22T15:41:36.472Z,101551.69
2022-08-22T15:44:14.898Z,101554.38
2022-08-22T15:47:11.619Z,101558.81
2022-08-22T15:49:52.804Z,101552.13
2022-08-22T15:52:29.310Z,101562.91
2022-08-22T15:54:57.066Z,101553.31
2022-08-22T15:58:04.940Z,101544.97
2022-08-22T16:01:02.466Z,101552.03
2022-08-22T16:03:33.022Z,101558.72
2022-08-22T16:06:07.428Z,101551.59
2022-08-22T16:08:36.959Z,101546.13
2022-08-22T16:11:03.257Z,101545.47
2022-08-22T16:13:29.755Z,101550.09
2022-08-22T16:16:02.241Z,101541.41
2022-08-22T16:18:35.196Z,101543.06
2022-08-22T16:21:08.514Z,101537.03
2022-08-22T16:23:50.074Z,101530.59
2022-08-22T16:26:31.797Z,101525.69
2022-08-22T16:29:13.476Z,101531.09
2022-08-22T16:31:43.737Z,101530.25
2022-08-22T16:34:16.276Z,101521.34
2022-08-22T16:36:54.764Z,101529.25
2022-08-22T16:39:21.202Z,101529.09
2022-08-22T16:41:54.112Z,101523.28
2022-08-22T16:44:20.475Z,101524.94
2022-08-22T16:46:48.662Z,101524.78
2022-08-22T16:49:50.235Z,101517.09
2022-08-22T16:52:25.904Z,101507.53
2022-08-22T16:55:01.216Z,101518.34
2022-08-22T16:58:06.013Z,101513.81
2022-08-22T17:00:57.884Z,101519.25
2022-08-22T17:03:55.390Z,101514.66
2022-08-22T17:06:32.065Z,101515.53
2022-08-22T17:09:14.482Z,101507.66
2022-08-22T17:11:49.106Z,101516.00
2022-08-22T17:14:41.766Z,101509.41
2022-08-22T17:17:29.001Z,101512.31
2022-08-22T17:20:08.132Z,101506.50
2022-08-22T17:22:54.149Z,101506.16
2022-08-22T17:25:29.071Z,101514.06
2022-08-22T17:28:39.266Z,101508.66
2022-08-22T17:31:17.323Z,101518.19
2022-08-22T17:33:52.391Z,101511.94
2022-08-22T17:36:27.907Z,101514.34
2022-08-22T17:39:17.242Z,101522.53
2022-08-22T17:42:06.867Z,101518.97
2022-08-22T17:44:46.943Z,101519.53
2022-08-22T17:47:32.639Z,101523.63
2022-08-22T17:50:10.618Z,101532.03
2022-08-22T17:52:49.099Z,101532.81
2022-08-22T17:55:26.573Z,101534.28
2022-08-22T17:58:04.981Z,101538.81
2022-08-22T18:00:35.519Z,101529.59
2022-08-22T18:03:07.655Z,101533.66
2022-08-22T18:06:01.434Z,101526.56
2022-08-22T18:09:13.311Z,101535.16
2022-08-22T18:11:40.062Z,101537.16
2022-08-22T18:14:21.124Z,101539.16
2022-08-22T18:16:53.817Z,101540.75
2022-08-22T18:19:45.171Z,101543.59
2022-08-22T18:22:11.571Z,101536.72
2022-08-22T18:25:08.563Z,101536.03
2022-08-22T18:27:51.619Z,101535.88
2022-08-22T18:30:26.621Z,101535.34
2022-08-22T18:33:05.897Z,101547.22
2022-08-22T18:35:42.755Z,101547.34
2022-08-22T18:38:35.852Z,101543.28
2022-08-22T18:41:28.628Z,101550.97
2022-08-22T18:43:58.339Z,101549.41
2022-08-22T18:46:47.878Z,101552.22
2022-08-22T18:49:24.037Z,101554.31
2022-08-22T18:52:05.739Z,101558.09
2022-08-22T18:54:52.138Z,101561.50
2022-08-22T18:57:55.662Z,101557.22
2022-08-22T19:00:38.818Z,101567.03
2022-08-22T19:03:28.507Z,101574.69
2022-08-22T19:06:00.963Z,101588.44
2022-08-22T19:08:36.393Z,101589.88
2022-08-22T19:11:35.091Z,101589.00
2022-08-22T19:14:24.051Z,101592.63
2022-08-22T19:17:15.631Z,101594.69
2022-08-22T19:20:22.862Z,101602.41
2022-08-22T19:23:00.483Z,101607.16
2022-08-22T19:25:27.932Z,101611.25
2022-08-22T19:28:06.567Z,101610.81
2022-08-22T19:30:44.998Z,101603.00
2022-08-22T19:33:34.150Z,101612.03
2022-08-22T19:36:09.400Z,101605.25
2022-08-22T19:39:09.229Z,101609.09
2022-08-22T19:41:54.039Z,101606.78
2022-08-22T19:44:20.313Z,101605.75
2022-08-22T19:47:04.784Z,101603.78
2022-08-22T19:49:42.820Z,101608.47
2022-08-22T19:52:46.541Z,101606.16
2022-08-22T19:55:18.647Z,101603.84
2022-08-22T19:58:00.199Z,101597.84
2022-08-22T20:01:05.095Z,101602.34
2022-08-22T20:03:41.803Z,101601.50
2022-08-22T20:06:44.139Z,101607.34
2022-08-22T20:09:52.947Z,101604.69
2022-08-22T20:12:42.089Z,101604.53
2022-08-22T20:15:20.196Z,101606.19
2022-08-22T20:18:46.536Z,101604.53
2022-08-22T20:20:54.448Z,101606.84
2022-08-22T20:23:29.555Z,101613.47
2022-08-22T20:25:57.276Z,101605.81
2022-08-22T20:28:53.155Z,101612.66
2022-08-22T20:31:23.616Z,101601.78
2022-08-22T20:34:00.636Z,101601.13
2022-08-22T20:36:29.286Z,101594.25
2022-08-22T20:39:01.717Z,101592.59
2022-08-22T20:41:31.728Z,101599.13
2022-08-22T20:44:19.290Z,101590.75
2022-08-22T20:46:55.213Z,101591.59
2022-08-22T20:49:28.160Z,101590.75
2022-08-22T20:52:34.770Z,101593.06
2022-08-22T20:55:01.059Z,101591.03
2022-08-22T20:57:28.426Z,101591.88
2022-08-22T20:59:56.546Z,101584.72
2022-08-22T21:02:34.627Z,101591.03
2022-08-22T21:05:40.900Z,101587.72
2022-08-22T21:08:18.077Z,101589.03
2022-08-22T21:11:03.727Z,101582.03
2022-08-22T21:13:37.694Z,101590.38
2022-08-22T21:16:30.694Z,101594.00
2022-08-22T21:18:57.871Z,101590.38
2022-08-22T21:21:30.583Z,101592.88
2022-08-22T21:24:01.381Z,101589.19
2022-08-22T21:26:38.528Z,101592.03
2022-08-22T21:29:14.042Z,101587.84
2022-08-22T21:31:49.879Z,101585.97
2022-08-22T21:34:22.658Z,101583.00
2022-08-22T21:36:52.307Z,101587.66
2022-08-22T21:39:22.436Z,101575.66
2022-08-22T21:41:52.960Z,101583.13
2022-08-22T21:44:27.676Z,101582.97
2022-08-22T21:46:54.756Z,101579.63
2022-08-22T21:49:21.386Z,101583.59
2022-08-22T21:51:48.542Z,101578.78
2022-08-22T21:54:29.861Z,101576.09
2022-08-22T21:57:09.983Z,101567.94
2022-08-22T21:59:51.955Z,101578.59
2022-08-22T22:02:37.354Z,101577.56
2022-08-22T22:05:18.075Z,101579.03
2022-08-22T22:07:46.631Z,101580.47
2022-08-22T22:10:16.796Z,101582.78
2022-08-22T22:12:45.628Z,101577.41
2022-08-22T22:15:16.401Z,101582.09
2022-08-22T22:17:43.402Z,101575.09
2022-08-22T22:20:11.604Z,101575.56
2022-08-22T22:22:46.042Z,101575.19
2022-08-22T22:25:41.324Z,101571.47
2022-08-22T22:28:06.575Z,101578.28
2022-08-22T22:30:33.143Z,101578.22
2022-08-22T22:32:59.798Z,101591.03
2022-08-22T22:35:26.878Z,101575.81
2022-08-22T22:37:54.168Z,101582.28
2022-08-22T22:40:20.676Z,101581.47
2022-08-22T22:42:47.179Z,101580.47
2022-08-22T22:45:13.580Z,101577.13
2022-08-22T22:47:40.006Z,101582.75
2022-08-22T22:50:07.058Z,101593.72
2022-08-22T22:52:33.588Z,101589.69
2022-08-22T22:55:08.365Z,101583.38
2022-08-22T22:57:41.398Z,101585.41
2022-08-22T23:00:12.648Z,101588.16
2022-08-22T23:02:40.144Z,101587.53
2022-08-22T23:05:08.662Z,101585.84
2022-08-22T23:07:37.570Z,101588.16
2022-08-22T23:10:06.754Z,101589.81
2022-08-22T23:12:35.567Z,101582.50
2022-08-22T23:15:02.162Z,101591.16
2022-08-22T23:17:28.735Z,101583.88
2022-08-22T23:19:55.179Z,101586.22
2022-08-22T23:22:21.532Z,101592.22
2022-08-22T23:24:49.566Z,101592.22
2022-08-22T23:27:16.024Z,101594.03
2022-08-22T23:29:43.029Z,101581.56
2022-08-22T23:32:11.153Z,101583.25
2022-08-22T23:34:43.859Z,101580.72
2022-08-22T23:37:10.543Z,101585.53
2022-08-22T23:39:38.363Z,101591.50
2022-08-22T23:42:10.334Z,101584.78
2022-08-22T23:44:39.320Z,101584.13
2022-08-22T23:47:07.454Z,101577.13
2022-08-22T23:49:34.740Z,101575.59
2022-08-22T23:52:01.853Z,101562.16
2022-08-22T23:54:28.548Z,101569.59
2022-08-22T23:56:57.430Z,101563.69
2022-08-22T23:59:30.625Z,101563.63
